sensor_id;sensor_type;location;lat;lon;timestamp;P1;durP1;ratioP1;P2;durP2;ratioP2
66437;SDS011;54537;47.972;11.662;2022-11-11T00:00:13;4.95;;;2.35;;
66437;SDS011;54537;47.972;11.662;2022-11-11T00:02:40;3.70;;;2.03;;
66437;SDS011;54537;47.972;11.662;2022-11-11T00:05:07;4.43;;;2.00;;
66437;SDS011;54537;47.972;11.662;2022-11-11T00:07:34;4.53;;;1.95;;
66437;SDS011;54537;47.972;11.662;2022-11-11T00:10:00;7.25;;;2.35;;
66437;SDS011;54537;47.972;11.662;2022-11-11T00:12:28;4.35;;;2.00;;
66437;SDS011;54537;47.972;11.662;2022-11-11T00:14:55;4.13;;;2.08;;
66437;SDS011;54537;47.972;11.662;2022-11-11T00:17:21;4.60;;;2.20;;
66437;SDS011;54537;47.972;11.662;2022-11-11T00:20:06;3.63;;;1.73;;
66437;SDS011;54537;47.972;11.662;2022-11-11T00:22:52;5.03;;;1.83;;
66437;SDS011;54537;47.972;11.662;2022-11-11T00:25:36;4.35;;;2.20;;
66437;SDS011;54537;47.972;11.662;2022-11-11T00:28:04;4.10;;;1.88;;
66437;SDS011;54537;47.972;11.662;2022-11-11T00:30:30;5.20;;;2.15;;
66437;SDS011;54537;47.972;11.662;2022-11-11T00:32:57;3.75;;;2.10;;
66437;SDS011;54537;47.972;11.662;2022-11-11T00:35:24;3.55;;;2.00;;
66437;SDS011;54537;47.972;11.662;2022-11-11T00:38:08;6.65;;;3.05;;
66437;SDS011;54537;47.972;11.662;2022-11-11T00:40:56;4.90;;;2.10;;
66437;SDS011;54537;47.972;11.662;2022-11-11T00:43:24;3.97;;;2.00;;
66437;SDS011;54537;47.972;11.662;2022-11-11T00:45:50;2.75;;;1.95;;
66437;SDS011;54537;47.972;11.662;2022-11-11T00:48:17;3.42;;;1.80;;
66437;SDS011;54537;47.972;11.662;2022-11-11T00:51:15;3.35;;;1.80;;
66437;SDS011;54537;47.972;11.662;2022-11-11T00:53:42;5.05;;;2.00;;
66437;SDS011;54537;47.972;11.662;2022-11-11T00:56:08;4.18;;;2.10;;
66437;SDS011;54537;47.972;11.662;2022-11-11T00:58:36;3.70;;;2.10;;
66437;SDS011;54537;47.972;11.662;2022-11-11T01:01:03;3.65;;;1.85;;
66437;SDS011;54537;47.972;11.662;2022-11-11T01:03:30;4.63;;;2.10;;
66437;SDS011;54537;47.972;11.662;2022-11-11T01:05:58;4.40;;;2.13;;
66437;SDS011;54537;47.972;11.662;2022-11-11T01:08:25;4.85;;;2.03;;
66437;SDS011;54537;47.972;11.662;2022-11-11T01:10:51;3.58;;;1.92;;
66437;SDS011;54537;47.972;11.662;2022-11-11T01:13:19;5.53;;;2.10;;
66437;SDS011;54537;47.972;11.662;2022-11-11T01:15:48;4.40;;;2.08;;
66437;SDS011;54537;47.972;11.662;2022-11-11T01:18:17;5.55;;;2.10;;
66437;SDS011;54537;47.972;11.662;2022-11-11T01:20:44;4.55;;;2.08;;
66437;SDS011;54537;47.972;11.662;2022-11-11T01:23:11;3.20;;;2.13;;
66437;SDS011;54537;47.972;11.662;2022-11-11T01:25:39;5.90;;;1.95;;
66437;SDS011;54537;47.972;11.662;2022-11-11T01:28:07;3.33;;;1.73;;
66437;SDS011;54537;47.972;11.662;2022-11-11T01:30:34;4.05;;;2.20;;
66437;SDS011;54537;47.972;11.662;2022-11-11T01:33:02;4.20;;;2.33;;
66437;SDS011;54537;47.972;11.662;2022-11-11T01:35:29;7.25;;;2.45;;
66437;SDS011;54537;47.972;11.662;2022-11-11T01:37:56;7.00;;;2.88;;
66437;SDS011;54537;47.972;11.662;2022-11-11T01:40:23;3.63;;;1.90;;
66437;SDS011;54537;47.972;11.662;2022-11-11T01:42:51;3.97;;;2.13;;
66437;SDS011;54537;47.972;11.662;2022-11-11T01:48:12;3.50;;;1.77;;
66437;SDS011;54537;47.972;11.662;2022-11-11T01:50:57;4.72;;;2.15;;
66437;SDS011;54537;47.972;11.662;2022-11-11T01:53:24;4.93;;;1.80;;
66437;SDS011;54537;47.972;11.662;2022-11-11T01:55:50;3.78;;;1.52;;
66437;SDS011;54537;47.972;11.662;2022-11-11T01:58:17;3.47;;;1.88;;
66437;SDS011;54537;47.972;11.662;2022-11-11T02:00:44;3.42;;;1.70;;
66437;SDS011;54537;47.972;11.662;2022-11-11T02:03:12;2.80;;;1.55;;
66437;SDS011;54537;47.972;11.662;2022-11-11T02:05:39;3.33;;;1.88;;
66437;SDS011;54537;47.972;11.662;2022-11-11T02:08:10;4.10;;;2.00;;
66437;SDS011;54537;47.972;11.662;2022-11-11T02:10:38;3.47;;;1.85;;
66437;SDS011;54537;47.972;11.662;2022-11-11T02:13:09;5.20;;;1.92;;
66437;SDS011;54537;47.972;11.662;2022-11-11T02:15:55;4.07;;;2.03;;
66437;SDS011;54537;47.972;11.662;2022-11-11T02:18:23;3.25;;;1.80;;
66437;SDS011;54537;47.972;11.662;2022-11-11T02:20:50;3.97;;;2.00;;
66437;SDS011;54537;47.972;11.662;2022-11-11T02:23:17;4.25;;;1.80;;
66437;SDS011;54537;47.972;11.662;2022-11-11T02:25:46;3.58;;;1.83;;
66437;SDS011;54537;47.972;11.662;2022-11-11T02:28:14;4.07;;;2.38;;
66437;SDS011;54537;47.972;11.662;2022-11-11T02:30:41;2.15;;;1.48;;
66437;SDS011;54537;47.972;11.662;2022-11-11T02:33:08;3.45;;;1.80;;
66437;SDS011;54537;47.972;11.662;2022-11-11T02:35:35;3.10;;;1.65;;
66437;SDS011;54537;47.972;11.662;2022-11-11T02:38:03;3.42;;;1.67;;
66437;SDS011;54537;47.972;11.662;2022-11-11T02:40:34;2.53;;;1.38;;
66437;SDS011;54537;47.972;11.662;2022-11-11T02:43:04;3.47;;;1.48;;
66437;SDS011;54537;47.972;11.662;2022-11-11T02:45:31;3.38;;;1.92;;
66437;SDS011;54537;47.972;11.662;2022-11-11T02:47:57;5.60;;;1.67;;
66437;SDS011;54537;47.972;11.662;2022-11-11T02:50:24;3.15;;;1.38;;
66437;SDS011;54537;47.972;11.662;2022-11-11T02:52:50;2.72;;;1.60;;
66437;SDS011;54537;47.972;11.662;2022-11-11T02:55:17;2.65;;;1.52;;
66437;SDS011;54537;47.972;11.662;2022-11-11T02:57:44;2.70;;;1.75;;
66437;SDS011;54537;47.972;11.662;2022-11-11T03:00:12;3.95;;;1.48;;
66437;SDS011;54537;47.972;11.662;2022-11-11T03:02:40;2.55;;;1.40;;
66437;SDS011;54537;47.972;11.662;2022-11-11T03:05:06;3.35;;;1.60;;
66437;SDS011;54537;47.972;11.662;2022-11-11T03:07:33;3.53;;;1.65;;
66437;SDS011;54537;47.972;11.662;2022-11-11T03:10:00;2.53;;;1.30;;
66437;SDS011;54537;47.972;11.662;2022-11-11T03:12:26;2.53;;;1.33;;
66437;SDS011;54537;47.972;11.662;2022-11-11T03:14:53;4.78;;;1.40;;
66437;SDS011;54537;47.972;11.662;2022-11-11T03:17:21;3.20;;;1.45;;
66437;SDS011;54537;47.972;11.662;2022-11-11T03:22:58;5.55;;;1.80;;
66437;SDS011;54537;47.972;11.662;2022-11-11T03:25:25;4.95;;;1.98;;
66437;SDS011;54537;47.972;11.662;2022-11-11T03:28:04;3.72;;;1.95;;
66437;SDS011;54537;47.972;11.662;2022-11-11T03:30:31;4.05;;;1.40;;
66437;SDS011;54537;47.972;11.662;2022-11-11T03:32:59;5.88;;;2.25;;
66437;SDS011;54537;47.972;11.662;2022-11-11T03:35:26;6.40;;;2.40;;
66437;SDS011;54537;47.972;11.662;2022-11-11T03:37:53;6.13;;;2.08;;
66437;SDS011;54537;47.972;11.662;2022-11-11T03:40:37;6.00;;;2.38;;
66437;SDS011;54537;47.972;11.662;2022-11-11T03:43:03;6.63;;;2.65;;
66437;SDS011;54537;47.972;11.662;2022-11-11T03:45:30;9.20;;;4.40;;
66437;SDS011;54537;47.972;11.662;2022-11-11T03:47:57;8.73;;;3.33;;
66437;SDS011;54537;47.972;11.662;2022-11-11T03:50:24;4.63;;;2.72;;
66437;SDS011;54537;47.972;11.662;2022-11-11T03:52:51;7.57;;;3.30;;
66437;SDS011;54537;47.972;11.662;2022-11-11T03:55:17;11.15;;;4.72;;
66437;SDS011;54537;47.972;11.662;2022-11-11T03:57:45;12.00;;;5.13;;
66437;SDS011;54537;47.972;11.662;2022-11-11T04:00:12;12.85;;;4.43;;
66437;SDS011;54537;47.972;11.662;2022-11-11T04:02:40;6.72;;;3.17;;
66437;SDS011;54537;47.972;11.662;2022-11-11T04:05:25;5.97;;;2.40;;
66437;SDS011;54537;47.972;11.662;2022-11-11T04:08:10;6.13;;;2.72;;
66437;SDS011;54537;47.972;11.662;2022-11-11T04:10:55;10.48;;;1.92;;
66437;SDS011;54537;47.972;11.662;2022-11-11T04:13:22;2.00;;;1.40;;
66437;SDS011;54537;47.972;11.662;2022-11-11T04:16:06;2.25;;;1.65;;
66437;SDS011;54537;47.972;11.662;2022-11-11T04:18:32;1.83;;;1.30;;
66437;SDS011;54537;47.972;11.662;2022-11-11T04:21:23;2.70;;;1.55;;
66437;SDS011;54537;47.972;11.662;2022-11-11T04:24:08;3.47;;;1.58;;
66437;SDS011;54537;47.972;11.662;2022-11-11T04:26:54;3.65;;;1.45;;
66437;SDS011;54537;47.972;11.662;2022-11-11T04:29:22;2.78;;;1.60;;
66437;SDS011;54537;47.972;11.662;2022-11-11T04:31:54;4.22;;;2.20;;
66437;SDS011;54537;47.972;11.662;2022-11-11T04:34:41;3.75;;;1.60;;
66437;SDS011;54537;47.972;11.662;2022-11-11T04:37:10;3.70;;;1.63;;
66437;SDS011;54537;47.972;11.662;2022-11-11T04:39:37;5.45;;;1.30;;
66437;SDS011;54537;47.972;11.662;2022-11-11T04:42:22;3.15;;;1.63;;
66437;SDS011;54537;47.972;11.662;2022-11-11T04:44:48;3.65;;;1.70;;
66437;SDS011;54537;47.972;11.662;2022-11-11T04:47:32;2.60;;;1.60;;
66437;SDS011;54537;47.972;11.662;2022-11-11T04:49:59;3.05;;;1.50;;
66437;SDS011;54537;47.972;11.662;2022-11-11T04:52:27;5.28;;;1.70;;
66437;SDS011;54537;47.972;11.662;2022-11-11T04:54:54;2.53;;;1.50;;
66437;SDS011;54537;47.972;11.662;2022-11-11T04:57:39;2.97;;;1.90;;
66437;SDS011;54537;47.972;11.662;2022-11-11T05:00:07;1.65;;;1.15;;
66437;SDS011;54537;47.972;11.662;2022-11-11T05:02:35;2.97;;;1.63;;
66437;SDS011;54537;47.972;11.662;2022-11-11T05:05:19;2.78;;;1.58;;
66437;SDS011;54537;47.972;11.662;2022-11-11T05:07:47;7.25;;;2.17;;
66437;SDS011;54537;47.972;11.662;2022-11-11T05:10:31;3.17;;;1.60;;
66437;SDS011;54537;47.972;11.662;2022-11-11T05:12:57;4.05;;;1.98;;
66437;SDS011;54537;47.972;11.662;2022-11-11T05:15:38;3.40;;;1.80;;
66437;SDS011;54537;47.972;11.662;2022-11-11T05:18:22;2.30;;;1.45;;
66437;SDS011;54537;47.972;11.662;2022-11-11T05:21:07;2.65;;;1.73;;
66437;SDS011;54537;47.972;11.662;2022-11-11T05:23:49;3.55;;;1.80;;
66437;SDS011;54537;47.972;11.662;2022-11-11T05:26:33;5.75;;;1.80;;
66437;SDS011;54537;47.972;11.662;2022-11-11T05:29:00;2.92;;;1.63;;
66437;SDS011;54537;47.972;11.662;2022-11-11T05:31:27;2.22;;;1.58;;
66437;SDS011;54537;47.972;11.662;2022-11-11T05:33:53;3.33;;;1.60;;
66437;SDS011;54537;47.972;11.662;2022-11-11T05:36:20;2.78;;;1.50;;
66437;SDS011;54537;47.972;11.662;2022-11-11T05:38:48;2.20;;;1.40;;
66437;SDS011;54537;47.972;11.662;2022-11-11T05:41:15;3.20;;;1.80;;
66437;SDS011;54537;47.972;11.662;2022-11-11T05:43:41;5.82;;;1.80;;
66437;SDS011;54537;47.972;11.662;2022-11-11T05:46:08;2.08;;;1.48;;
66437;SDS011;54537;47.972;11.662;2022-11-11T05:48:34;5.13;;;1.40;;
66437;SDS011;54537;47.972;11.662;2022-11-11T05:51:21;3.92;;;1.98;;
66437;SDS011;54537;47.972;11.662;2022-11-11T05:53:53;3.72;;;1.75;;
66437;SDS011;54537;47.972;11.662;2022-11-11T05:56:20;5.57;;;1.70;;
66437;SDS011;54537;47.972;11.662;2022-11-11T05:58:47;6.70;;;2.15;;
66437;SDS011;54537;47.972;11.662;2022-11-11T06:01:14;3.83;;;2.05;;
66437;SDS011;54537;47.972;11.662;2022-11-11T06:03:40;6.40;;;2.28;;
66437;SDS011;54537;47.972;11.662;2022-11-11T06:06:07;10.65;;;1.98;;
66437;SDS011;54537;47.972;11.662;2022-11-11T06:08:33;5.60;;;2.47;;
66437;SDS011;54537;47.972;11.662;2022-11-11T06:11:01;5.00;;;2.47;;
66437;SDS011;54537;47.972;11.662;2022-11-11T06:13:27;10.30;;;2.47;;
66437;SDS011;54537;47.972;11.662;2022-11-11T06:15:54;4.00;;;1.70;;
66437;SDS011;54537;47.972;11.662;2022-11-11T06:18:21;3.97;;;1.80;;
66437;SDS011;54537;47.972;11.662;2022-11-11T06:20:51;6.90;;;2.33;;
66437;SDS011;54537;47.972;11.662;2022-11-11T06:23:18;4.55;;;2.08;;
66437;SDS011;54537;47.972;11.662;2022-11-11T06:25:45;4.18;;;1.90;;
66437;SDS011;54537;47.972;11.662;2022-11-11T06:28:30;4.28;;;1.58;;
66437;SDS011;54537;47.972;11.662;2022-11-11T06:30:57;8.05;;;1.70;;
66437;SDS011;54537;47.972;11.662;2022-11-11T06:33:23;3.17;;;1.75;;
66437;SDS011;54537;47.972;11.662;2022-11-11T06:35:50;6.07;;;1.77;;
66437;SDS011;54537;47.972;11.662;2022-11-11T06:38:17;6.63;;;1.98;;
66437;SDS011;54537;47.972;11.662;2022-11-11T06:40:44;3.78;;;1.90;;
66437;SDS011;54537;47.972;11.662;2022-11-11T06:43:10;3.72;;;1.98;;
66437;SDS011;54537;47.972;11.662;2022-11-11T06:45:38;7.30;;;2.20;;
66437;SDS011;54537;47.972;11.662;2022-11-11T06:48:05;8.85;;;2.97;;
66437;SDS011;54537;47.972;11.662;2022-11-11T06:50:32;8.13;;;3.85;;
66437;SDS011;54537;47.972;11.662;2022-11-11T06:53:02;6.63;;;2.90;;
66437;SDS011;54537;47.972;11.662;2022-11-11T06:55:29;5.40;;;2.33;;
66437;SDS011;54537;47.972;11.662;2022-11-11T06:58:02;5.13;;;2.47;;
66437;SDS011;54537;47.972;11.662;2022-11-11T07:00:29;5.72;;;2.30;;
66437;SDS011;54537;47.972;11.662;2022-11-11T07:02:57;7.75;;;2.65;;
66437;SDS011;54537;47.972;11.662;2022-11-11T07:05:24;8.00;;;2.50;;
66437;SDS011;54537;47.972;11.662;2022-11-11T07:07:50;5.78;;;2.78;;
66437;SDS011;54537;47.972;11.662;2022-11-11T07:10:17;7.53;;;2.80;;
66437;SDS011;54537;47.972;11.662;2022-11-11T07:12:43;6.60;;;2.92;;
66437;SDS011;54537;47.972;11.662;2022-11-11T07:15:10;7.57;;;3.00;;
66437;SDS011;54537;47.972;11.662;2022-11-11T07:17:37;6.28;;;3.08;;
66437;SDS011;54537;47.972;11.662;2022-11-11T07:20:05;7.07;;;3.03;;
66437;SDS011;54537;47.972;11.662;2022-11-11T07:22:34;8.75;;;2.70;;
66437;SDS011;54537;47.972;11.662;2022-11-11T07:25:01;11.70;;;2.85;;
66437;SDS011;54537;47.972;11.662;2022-11-11T07:27:27;7.43;;;2.45;;
66437;SDS011;54537;47.972;11.662;2022-11-11T07:29:54;7.93;;;2.20;;
66437;SDS011;54537;47.972;11.662;2022-11-11T07:32:20;4.00;;;1.88;;
66437;SDS011;54537;47.972;11.662;2022-11-11T07:34:47;6.20;;;2.75;;
66437;SDS011;54537;47.972;11.662;2022-11-11T07:37:15;4.93;;;2.25;;
66437;SDS011;54537;47.972;11.662;2022-11-11T07:39:42;7.57;;;2.55;;
66437;SDS011;54537;47.972;11.662;2022-11-11T07:42:08;13.75;;;2.55;;
66437;SDS011;54537;47.972;11.662;2022-11-11T07:44:35;5.32;;;2.17;;
66437;SDS011;54537;47.972;11.662;2022-11-11T07:47:01;8.50;;;2.10;;
66437;SDS011;54537;47.972;11.662;2022-11-11T07:49:28;3.75;;;1.98;;
66437;SDS011;54537;47.972;11.662;2022-11-11T07:51:54;5.90;;;2.63;;
66437;SDS011;54537;47.972;11.662;2022-11-11T07:54:22;5.85;;;2.17;;
66437;SDS011;54537;47.972;11.662;2022-11-11T07:56:49;5.90;;;2.20;;
66437;SDS011;54537;47.972;11.662;2022-11-11T07:59:15;2.58;;;1.80;;
66437;SDS011;54537;47.972;11.662;2022-11-11T08:01:42;6.35;;;1.98;;
66437;SDS011;54537;47.972;11.662;2022-11-11T08:04:08;5.13;;;1.98;;
66437;SDS011;54537;47.972;11.662;2022-11-11T08:06:35;3.08;;;1.92;;
66437;SDS011;54537;47.972;11.662;2022-11-11T08:09:02;3.70;;;1.90;;
66437;SDS011;54537;47.972;11.662;2022-11-11T08:11:30;2.78;;;1.42;;
66437;SDS011;54537;47.972;11.662;2022-11-11T08:14:14;3.17;;;1.52;;
66437;SDS011;54537;47.972;11.662;2022-11-11T08:16:40;3.05;;;1.40;;
66437;SDS011;54537;47.972;11.662;2022-11-11T08:19:07;2.25;;;1.50;;
66437;SDS011;54537;47.972;11.662;2022-11-11T08:21:33;1.35;;;1.20;;
66437;SDS011;54537;47.972;11.662;2022-11-11T08:24:00;6.43;;;1.73;;
66437;SDS011;54537;47.972;11.662;2022-11-11T08:26:26;2.55;;;1.20;;
66437;SDS011;54537;47.972;11.662;2022-11-11T08:28:54;2.80;;;1.70;;
66437;SDS011;54537;47.972;11.662;2022-11-11T08:31:21;4.43;;;1.50;;
66437;SDS011;54537;47.972;11.662;2022-11-11T08:33:47;3.42;;;1.35;;
66437;SDS011;54537;47.972;11.662;2022-11-11T08:36:14;2.97;;;1.50;;
66437;SDS011;54537;47.972;11.662;2022-11-11T08:38:40;2.78;;;1.60;;
66437;SDS011;54537;47.972;11.662;2022-11-11T08:41:07;5.22;;;2.20;;
66437;SDS011;54537;47.972;11.662;2022-11-11T08:43:33;3.08;;;1.55;;
66437;SDS011;54537;47.972;11.662;2022-11-11T08:46:02;3.65;;;1.80;;
66437;SDS011;54537;47.972;11.662;2022-11-11T08:48:29;3.50;;;1.83;;
66437;SDS011;54537;47.972;11.662;2022-11-11T08:50:55;2.22;;;1.33;;
66437;SDS011;54537;47.972;11.662;2022-11-11T08:53:23;1.55;;;1.13;;
66437;SDS011;54537;47.972;11.662;2022-11-11T08:55:49;2.97;;;1.23;;
66437;SDS011;54537;47.972;11.662;2022-11-11T08:58:16;3.05;;;1.10;;
66437;SDS011;54537;47.972;11.662;2022-11-11T09:00:42;3.58;;;1.10;;
66437;SDS011;54537;47.972;11.662;2022-11-11T09:03:10;1.20;;;0.75;;
66437;SDS011;54537;47.972;11.662;2022-11-11T09:05:37;1.77;;;1.13;;
66437;SDS011;54537;47.972;11.662;2022-11-11T09:08:05;4.20;;;1.52;;
66437;SDS011;54537;47.972;11.662;2022-11-11T09:10:32;7.07;;;1.20;;
66437;SDS011;54537;47.972;11.662;2022-11-11T09:12:59;5.05;;;1.13;;
66437;SDS011;54537;47.972;11.662;2022-11-11T09:15:26;2.95;;;1.20;;
66437;SDS011;54537;47.972;11.662;2022-11-11T09:17:53;6.85;;;3.85;;
66437;SDS011;54537;47.972;11.662;2022-11-11T09:20:23;10.00;;;4.22;;
66437;SDS011;54537;47.972;11.662;2022-11-11T09:22:50;7.38;;;3.70;;
66437;SDS011;54537;47.972;11.662;2022-11-11T09:25:17;3.55;;;2.03;;
66437;SDS011;54537;47.972;11.662;2022-11-11T09:27:44;2.20;;;1.10;;
66437;SDS011;54537;47.972;11.662;2022-11-11T09:30:19;5.20;;;1.17;;
66437;SDS011;54537;47.972;11.662;2022-11-11T09:32:46;5.60;;;1.08;;
66437;SDS011;54537;47.972;11.662;2022-11-11T09:35:12;1.33;;;1.08;;
66437;SDS011;54537;47.972;11.662;2022-11-11T09:37:40;1.90;;;1.20;;
66437;SDS011;54537;47.972;11.662;2022-11-11T09:40:08;2.28;;;1.00;;
66437;SDS011;54537;47.972;11.662;2022-11-11T09:42:36;1.17;;;0.90;;
66437;SDS011;54537;47.972;11.662;2022-11-11T09:45:08;1.58;;;1.08;;
66437;SDS011;54537;47.972;11.662;2022-11-11T09:47:41;2.45;;;1.30;;
66437;SDS011;54537;47.972;11.662;2022-11-11T09:50:14;2.47;;;0.93;;
66437;SDS011;54537;47.972;11.662;2022-11-11T09:52:45;1.17;;;1.08;;
66437;SDS011;54537;47.972;11.662;2022-11-11T09:55:14;1.40;;;1.10;;
66437;SDS011;54537;47.972;11.662;2022-11-11T09:57:43;1.40;;;1.10;;
66437;SDS011;54537;47.972;11.662;2022-11-11T10:00:14;1.10;;;1.00;;
66437;SDS011;54537;47.972;11.662;2022-11-11T10:02:44;1.58;;;1.25;;
66437;SDS011;54537;47.972;11.662;2022-11-11T10:05:14;1.98;;;1.00;;
66437;SDS011;54537;47.972;11.662;2022-11-11T10:07:44;1.33;;;1.13;;
66437;SDS011;54537;47.972;11.662;2022-11-11T10:10:17;1.30;;;1.00;;
66437;SDS011;54537;47.972;11.662;2022-11-11T10:12:48;2.47;;;1.40;;
66437;SDS011;54537;47.972;11.662;2022-11-11T10:15:17;1.42;;;1.10;;
66437;SDS011;54537;47.972;11.662;2022-11-11T10:17:47;1.67;;;1.17;;
66437;SDS011;54537;47.972;11.662;2022-11-11T10:20:22;1.33;;;1.10;;
66437;SDS011;54537;47.972;11.662;2022-11-11T10:22:53;1.58;;;1.40;;
66437;SDS011;54537;47.972;11.662;2022-11-11T10:25:25;1.92;;;1.05;;
66437;SDS011;54537;47.972;11.662;2022-11-11T10:27:53;2.30;;;1.08;;
66437;SDS011;54537;47.972;11.662;2022-11-11T10:30:22;0.90;;;0.70;;
66437;SDS011;54537;47.972;11.662;2022-11-11T10:32:52;1.27;;;1.08;;
66437;SDS011;54537;47.972;11.662;2022-11-11T10:35:21;2.20;;;1.27;;
66437;SDS011;54537;47.972;11.662;2022-11-11T10:37:50;1.90;;;1.30;;
66437;SDS011;54537;47.972;11.662;2022-11-11T10:40:24;3.10;;;1.25;;
66437;SDS011;54537;47.972;11.662;2022-11-11T10:42:54;2.17;;;1.25;;
66437;SDS011;54537;47.972;11.662;2022-11-11T10:45:21;2.13;;;1.10;;
66437;SDS011;54537;47.972;11.662;2022-11-11T10:47:53;1.92;;;1.13;;
66437;SDS011;54537;47.972;11.662;2022-11-11T10:50:22;2.15;;;1.10;;
66437;SDS011;54537;47.972;11.662;2022-11-11T10:52:53;2.53;;;1.17;;
66437;SDS011;54537;47.972;11.662;2022-11-11T10:55:26;2.65;;;1.45;;
66437;SDS011;54537;47.972;11.662;2022-11-11T10:57:56;2.72;;;1.70;;
66437;SDS011;54537;47.972;11.662;2022-11-11T11:00:24;3.15;;;1.48;;
66437;SDS011;54537;47.972;11.662;2022-11-11T11:02:54;4.57;;;1.45;;
66437;SDS011;54537;47.972;11.662;2022-11-11T11:05:25;1.60;;;1.08;;
66437;SDS011;54537;47.972;11.662;2022-11-11T11:07:54;1.20;;;1.00;;
66437;SDS011;54537;47.972;11.662;2022-11-11T11:10:25;2.00;;;1.20;;
66437;SDS011;54537;47.972;11.662;2022-11-11T11:12:54;1.15;;;1.00;;
66437;SDS011;54537;47.972;11.662;2022-11-11T11:15:24;1.13;;;1.02;;
66437;SDS011;54537;47.972;11.662;2022-11-11T11:17:53;1.02;;;0.90;;
66437;SDS011;54537;47.972;11.662;2022-11-11T11:20:22;0.60;;;0.50;;
66437;SDS011;54537;47.972;11.662;2022-11-11T11:22:50;1.10;;;1.00;;
66437;SDS011;54537;47.972;11.662;2022-11-11T11:25:19;1.48;;;1.00;;
66437;SDS011;54537;47.972;11.662;2022-11-11T11:27:48;1.98;;;1.10;;
66437;SDS011;54537;47.972;11.662;2022-11-11T11:30:16;1.77;;;1.00;;
66437;SDS011;54537;47.972;11.662;2022-11-11T11:32:55;1.10;;;1.00;;
66437;SDS011;54537;47.972;11.662;2022-11-11T11:35:29;1.50;;;1.05;;
66437;SDS011;54537;47.972;11.662;2022-11-11T11:37:58;1.25;;;1.15;;
66437;SDS011;54537;47.972;11.662;2022-11-11T11:40:26;2.65;;;1.20;;
66437;SDS011;54537;47.972;11.662;2022-11-11T11:42:52;1.98;;;1.08;;
66437;SDS011;54537;47.972;11.662;2022-11-11T11:45:20;1.17;;;1.08;;
66437;SDS011;54537;47.972;11.662;2022-11-11T11:47:50;3.25;;;1.20;;
66437;SDS011;54537;47.972;11.662;2022-11-11T11:50:28;2.10;;;1.30;;
66437;SDS011;54537;47.972;11.662;2022-11-11T11:53:03;1.95;;;1.40;;
66437;SDS011;54537;47.972;11.662;2022-11-11T11:55:38;1.67;;;1.15;;
66437;SDS011;54537;47.972;11.662;2022-11-11T11:58:16;2.40;;;1.10;;
66437;SDS011;54537;47.972;11.662;2022-11-11T12:00:49;2.85;;;1.15;;
66437;SDS011;54537;47.972;11.662;2022-11-11T12:06:21;1.45;;;1.17;;
66437;SDS011;54537;47.972;11.662;2022-11-11T12:08:55;2.25;;;1.02;;
66437;SDS011;54537;47.972;11.662;2022-11-11T12:11:30;1.98;;;1.00;;
66437;SDS011;54537;47.972;11.662;2022-11-11T12:16:58;3.25;;;1.45;;
66437;SDS011;54537;47.972;11.662;2022-11-11T12:19:37;1.75;;;1.10;;
66437;SDS011;54537;47.972;11.662;2022-11-11T12:22:11;2.00;;;1.25;;
66437;SDS011;54537;47.972;11.662;2022-11-11T12:24:51;1.48;;;1.30;;
66437;SDS011;54537;47.972;11.662;2022-11-11T12:27:24;1.52;;;1.08;;
66437;SDS011;54537;47.972;11.662;2022-11-11T12:30:01;2.17;;;1.13;;
66437;SDS011;54537;47.972;11.662;2022-11-11T12:35:25;1.45;;;1.10;;
66437;SDS011;54537;47.972;11.662;2022-11-11T12:38:13;3.03;;;1.30;;
66437;SDS011;54537;47.972;11.662;2022-11-11T12:40:53;4.35;;;1.05;;
66437;SDS011;54537;47.972;11.662;2022-11-11T12:43:27;1.52;;;1.20;;
66437;SDS011;54537;47.972;11.662;2022-11-11T12:46:00;1.80;;;1.00;;
66437;SDS011;54537;47.972;11.662;2022-11-11T12:48:35;1.27;;;0.98;;
66437;SDS011;54537;47.972;11.662;2022-11-11T12:51:09;2.08;;;1.27;;
66437;SDS011;54537;47.972;11.662;2022-11-11T12:53:40;5.10;;;1.23;;
66437;SDS011;54537;47.972;11.662;2022-11-11T12:56:13;2.20;;;1.05;;
66437;SDS011;54537;47.972;11.662;2022-11-11T12:58:48;1.08;;;0.98;;
66437;SDS011;54537;47.972;11.662;2022-11-11T13:01:19;1.25;;;1.00;;
66437;SDS011;54537;47.972;11.662;2022-11-11T13:03:58;4.47;;;2.42;;
66437;SDS011;54537;47.972;11.662;2022-11-11T13:06:36;1.88;;;0.85;;
66437;SDS011;54537;47.972;11.662;2022-11-11T13:09:25;2.03;;;1.05;;
66437;SDS011;54537;47.972;11.662;2022-11-11T13:12:00;1.10;;;1.00;;
66437;SDS011;54537;47.972;11.662;2022-11-11T13:14:39;1.48;;;1.20;;
66437;SDS011;54537;47.972;11.662;2022-11-11T13:17:12;2.70;;;1.10;;
66437;SDS011;54537;47.972;11.662;2022-11-11T13:19:40;1.40;;;1.00;;
66437;SDS011;54537;47.972;11.662;2022-11-11T13:22:13;2.78;;;1.77;;
66437;SDS011;54537;47.972;11.662;2022-11-11T13:24:42;1.50;;;1.10;;
66437;SDS011;54537;47.972;11.662;2022-11-11T13:27:12;4.47;;;1.40;;
66437;SDS011;54537;47.972;11.662;2022-11-11T13:29:56;1.10;;;1.00;;
66437;SDS011;54537;47.972;11.662;2022-11-11T13:32:41;1.20;;;0.85;;
66437;SDS011;54537;47.972;11.662;2022-11-11T13:35:17;1.60;;;1.00;;
66437;SDS011;54537;47.972;11.662;2022-11-11T13:37:46;1.80;;;0.90;;
66437;SDS011;54537;47.972;11.662;2022-11-11T13:40:23;2.92;;;1.05;;
66437;SDS011;54537;47.972;11.662;2022-11-11T13:43:14;1.75;;;1.00;;
66437;SDS011;54537;47.972;11.662;2022-11-11T13:45:48;4.55;;;1.30;;
66437;SDS011;54537;47.972;11.662;2022-11-11T13:48:17;4.75;;;1.00;;
66437;SDS011;54537;47.972;11.662;2022-11-11T13:50:46;1.23;;;0.80;;
66437;SDS011;54537;47.972;11.662;2022-11-11T13:53:13;1.70;;;1.10;;
66437;SDS011;54537;47.972;11.662;2022-11-11T13:55:48;1.15;;;1.00;;
66437;SDS011;54537;47.972;11.662;2022-11-11T13:58:21;1.55;;;1.10;;
66437;SDS011;54537;47.972;11.662;2022-11-11T14:00:56;1.20;;;0.90;;
66437;SDS011;54537;47.972;11.662;2022-11-11T14:03:28;2.03;;;0.88;;
66437;SDS011;54537;47.972;11.662;2022-11-11T14:09:00;2.40;;;1.00;;
66437;SDS011;54537;47.972;11.662;2022-11-11T14:11:28;3.38;;;1.40;;
66437;SDS011;54537;47.972;11.662;2022-11-11T14:13:57;1.63;;;1.00;;
66437;SDS011;54537;47.972;11.662;2022-11-11T14:19:32;1.90;;;1.40;;
66437;SDS011;54537;47.972;11.662;2022-11-11T14:21:59;4.05;;;1.33;;
66437;SDS011;54537;47.972;11.662;2022-11-11T14:24:30;2.22;;;1.10;;
66437;SDS011;54537;47.972;11.662;2022-11-11T14:27:00;1.42;;;1.20;;
66437;SDS011;54537;47.972;11.662;2022-11-11T14:29:29;2.25;;;1.40;;
66437;SDS011;54537;47.972;11.662;2022-11-11T14:32:08;2.85;;;1.40;;
66437;SDS011;54537;47.972;11.662;2022-11-11T14:37:52;3.47;;;1.40;;
66437;SDS011;54537;47.972;11.662;2022-11-11T14:40:26;2.33;;;1.55;;
66437;SDS011;54537;47.972;11.662;2022-11-11T14:42:54;2.85;;;1.70;;
66437;SDS011;54537;47.972;11.662;2022-11-11T14:51:36;4.45;;;2.03;;
66437;SDS011;54537;47.972;11.662;2022-11-11T14:54:14;5.50;;;1.73;;
66437;SDS011;54537;47.972;11.662;2022-11-11T14:56:43;3.47;;;1.65;;
66437;SDS011;54537;47.972;11.662;2022-11-11T14:59:10;6.68;;;2.17;;
66437;SDS011;54537;47.972;11.662;2022-11-11T15:01:38;5.28;;;2.08;;
66437;SDS011;54537;47.972;11.662;2022-11-11T15:04:05;3.13;;;1.77;;
66437;SDS011;54537;47.972;11.662;2022-11-11T15:06:33;2.85;;;1.90;;
66437;SDS011;54537;47.972;11.662;2022-11-11T15:09:02;2.53;;;1.42;;
66437;SDS011;54537;47.972;11.662;2022-11-11T15:11:37;3.75;;;2.00;;
66437;SDS011;54537;47.972;11.662;2022-11-11T15:14:11;5.03;;;1.60;;
66437;SDS011;54537;47.972;11.662;2022-11-11T15:16:50;3.63;;;1.98;;
66437;SDS011;54537;47.972;11.662;2022-11-11T15:22:07;4.53;;;2.08;;
66437;SDS011;54537;47.972;11.662;2022-11-11T15:24:43;4.60;;;2.10;;